createdAt,value
2023-05-09T00:00:14.816Z,7.90
2023-05-09T00:02:45.803Z,7.38
2023-05-09T00:05:15.180Z,7.78
2023-05-09T00:07:43.464Z,6.95
2023-05-09T00:10:11.822Z,8.30
2023-05-09T00:12:39.916Z,7.88
2023-05-09T00:15:09.938Z,8.10
2023-05-09T00:17:38.801Z,7.57
2023-05-09T00:20:12.403Z,8.40
2023-05-09T00:22:41.292Z,8.27
2023-05-09T00:25:10.710Z,8.00
2023-05-09T00:27:38.776Z,7.35
2023-05-09T00:30:07.883Z,8.05
2023-05-09T00:32:37.331Z,7.72
2023-05-09T00:35:06.120Z,8.38
2023-05-09T00:37:33.951Z,8.27
2023-05-09T00:40:01.829Z,8.05
2023-05-09T00:42:29.737Z,7.68
2023-05-09T00:44:57.782Z,8.25
2023-05-09T00:47:25.963Z,8.18
2023-05-09T00:49:56.688Z,8.40
2023-05-09T00:52:26.136Z,8.38
2023-05-09T00:54:54.851Z,7.68
2023-05-09T00:57:23.186Z,8.18
2023-05-09T00:59:51.302Z,8.13
2023-05-09T01:02:19.426Z,8.77
2023-05-09T01:04:48.049Z,8.27
2023-05-09T01:07:29.640Z,9.57
2023-05-09T01:10:04.898Z,8.48
2023-05-09T01:12:51.096Z,9.30
2023-05-09T01:15:25.106Z,8.85
2023-05-09T01:17:56.693Z,8.52
2023-05-09T01:20:31.338Z,8.30
2023-05-09T01:23:26.326Z,9.15
2023-05-09T01:26:03.305Z,8.98
2023-05-09T01:28:57.426Z,9.30
2023-05-09T01:31:27.979Z,10.15
2023-05-09T01:34:01.171Z,9.88
2023-05-09T01:36:33.346Z,10.60
2023-05-09T01:39:04.268Z,9.55
2023-05-09T01:41:35.549Z,9.63
2023-05-09T01:44:07.420Z,9.95
2023-05-09T01:46:38.322Z,10.07
2023-05-09T01:49:08.912Z,10.45
2023-05-09T01:51:38.591Z,9.60
2023-05-09T01:54:07.866Z,11.88
2023-05-09T01:56:37.367Z,11.77
2023-05-09T01:59:07.896Z,10.90
2023-05-09T02:01:37.509Z,10.40
2023-05-09T02:04:06.247Z,10.80
2023-05-09T02:06:35.033Z,11.70
2023-05-09T02:09:03.670Z,10.52
2023-05-09T02:11:31.783Z,10.50
2023-05-09T02:13:59.708Z,11.05
2023-05-09T02:16:27.891Z,10.43
2023-05-09T02:18:57.710Z,11.40
2023-05-09T02:21:27.860Z,11.52
2023-05-09T02:23:57.030Z,10.73
2023-05-09T02:26:26.284Z,11.68
2023-05-09T02:28:55.924Z,11.77
2023-05-09T02:31:26.896Z,11.60
2023-05-09T02:33:57.972Z,11.98
2023-05-09T02:36:26.218Z,11.73
2023-05-09T02:38:54.225Z,12.48
2023-05-09T02:41:22.832Z,12.23
2023-05-09T02:43:50.657Z,11.98
2023-05-09T02:46:18.595Z,12.95
2023-05-09T02:48:46.561Z,12.73
2023-05-09T02:51:15.986Z,11.93
2023-05-09T02:53:43.963Z,12.35
2023-05-09T02:56:12.030Z,13.10
2023-05-09T02:58:39.877Z,13.10
2023-05-09T03:01:07.751Z,14.73
2023-05-09T03:03:35.629Z,14.80
2023-05-09T03:06:06.061Z,14.45
2023-05-09T03:08:35.340Z,14.30
2023-05-09T03:11:03.719Z,14.25
2023-05-09T03:13:35.500Z,14.27
2023-05-09T03:16:06.496Z,13.77
2023-05-09T03:18:40.658Z,14.50
2023-05-09T03:21:13.853Z,13.48
2023-05-09T03:23:45.781Z,13.95
2023-05-09T03:26:15.964Z,14.23
2023-05-09T03:28:53.089Z,14.68
2023-05-09T03:31:26.592Z,15.20
2023-05-09T03:33:55.180Z,15.50
2023-05-09T03:36:23.766Z,15.65
2023-05-09T03:38:53.955Z,16.38
2023-05-09T03:41:23.355Z,16.58
2023-05-09T03:43:52.160Z,16.48
2023-05-09T03:46:23.686Z,17.08
2023-05-09T03:48:52.133Z,17.27
2023-05-09T03:51:20.713Z,17.88
2023-05-09T03:53:50.303Z,17.88
2023-05-09T03:56:28.283Z,17.95
2023-05-09T03:58:57.262Z,17.50
2023-05-09T04:01:26.732Z,18.15
2023-05-09T04:03:57.572Z,17.30
2023-05-09T04:06:26.618Z,17.58
2023-05-09T04:08:54.747Z,18.70
2023-05-09T04:11:24.127Z,18.20
2023-05-09T04:13:52.017Z,18.45
2023-05-09T04:16:28.755Z,18.02
2023-05-09T04:18:56.766Z,18.00
2023-05-09T04:21:26.843Z,17.65
2023-05-09T04:23:58.475Z,18.20
2023-05-09T04:26:48.325Z,18.45
2023-05-09T04:29:21.085Z,17.90
2023-05-09T04:31:54.044Z,18.40
2023-05-09T04:34:26.287Z,17.50
2023-05-09T04:36:55.231Z,19.30
2023-05-09T04:39:23.162Z,19.10
2023-05-09T04:42:01.351Z,18.58
2023-05-09T04:44:29.326Z,19.33
2023-05-09T04:46:58.127Z,19.08
2023-05-09T04:49:26.401Z,19.58
2023-05-09T04:51:54.295Z,18.98
2023-05-09T04:54:22.466Z,19.40
2023-05-09T04:56:57.939Z,18.45
2023-05-09T04:59:33.660Z,18.30
2023-05-09T05:02:01.642Z,18.48
2023-05-09T05:04:29.906Z,19.02
2023-05-09T05:06:58.006Z,18.70
2023-05-09T05:09:25.970Z,17.85
2023-05-09T05:12:00.765Z,18.25
2023-05-09T05:14:30.997Z,18.05
2023-05-09T05:17:00.515Z,17.98
2023-05-09T05:19:28.490Z,18.13
2023-05-09T05:21:56.906Z,17.40
2023-05-09T05:24:25.846Z,18.65
2023-05-09T05:26:54.134Z,18.20
2023-05-09T05:29:22.121Z,16.95
2023-05-09T05:31:49.978Z,18.75
2023-05-09T05:34:19.302Z,16.30
2023-05-09T05:36:47.773Z,17.00
2023-05-09T05:39:15.684Z,18.05
2023-05-09T05:41:43.595Z,17.48
2023-05-09T05:44:12.038Z,17.23
2023-05-09T05:46:40.250Z,16.58
2023-05-09T05:49:08.395Z,17.13
2023-05-09T05:51:38.480Z,17.55
2023-05-09T05:54:07.713Z,17.52
2023-05-09T05:56:37.089Z,16.63
2023-05-09T05:59:05.274Z,16.63
2023-05-09T06:01:33.799Z,16.25
2023-05-09T06:04:01.820Z,16.23
2023-05-09T06:06:32.385Z,16.60
2023-05-09T06:09:01.712Z,16.55
2023-05-09T06:11:29.628Z,17.00
2023-05-09T06:13:57.688Z,17.67
2023-05-09T06:16:25.793Z,17.13
2023-05-09T06:18:55.872Z,16.27
2023-05-09T06:21:24.284Z,16.58
2023-05-09T06:24:07.867Z,16.52
2023-05-09T06:26:39.453Z,15.60
2023-05-09T06:29:07.792Z,16.63
2023-05-09T06:31:38.646Z,15.75
2023-05-09T06:34:07.161Z,16.30
2023-05-09T06:36:35.534Z,15.90
2023-05-09T06:39:03.449Z,16.30
2023-05-09T06:41:31.448Z,16.40
2023-05-09T06:44:02.500Z,16.75
2023-05-09T06:46:30.625Z,15.10
2023-05-09T06:48:58.614Z,14.95
2023-05-09T06:51:27.065Z,16.38
2023-05-09T06:53:54.995Z,15.65
2023-05-09T06:56:23.246Z,16.40
2023-05-09T06:58:51.372Z,16.98
2023-05-09T07:01:20.665Z,16.60
2023-05-09T07:03:48.560Z,15.52
2023-05-09T07:06:16.459Z,16.00
2023-05-09T07:08:44.414Z,15.23
2023-05-09T07:11:12.411Z,14.70
2023-05-09T07:13:40.292Z,16.20
2023-05-09T07:16:08.446Z,15.32
2023-05-09T07:18:37.812Z,14.60
2023-05-09T07:21:05.710Z,15.93
2023-05-09T07:23:33.591Z,15.60
2023-05-09T07:26:01.509Z,15.05
2023-05-09T07:28:29.398Z,15.82
2023-05-09T07:30:57.423Z,14.77
2023-05-09T07:33:25.728Z,14.85
2023-05-09T07:35:55.058Z,14.00
2023-05-09T07:38:22.903Z,14.30
2023-05-09T07:40:50.866Z,13.57
2023-05-09T07:43:18.726Z,14.57
2023-05-09T07:45:47.446Z,13.68
2023-05-09T07:48:15.408Z,13.05
2023-05-09T07:50:43.257Z,13.25
2023-05-09T07:53:12.542Z,12.90
2023-05-09T07:55:40.418Z,13.38
2023-05-09T07:58:08.342Z,13.40
2023-05-09T08:00:36.209Z,12.60
2023-05-09T08:03:04.281Z,14.20
2023-05-09T08:05:32.739Z,13.23
2023-05-09T08:08:00.622Z,13.00
2023-05-09T08:10:30.693Z,13.27
2023-05-09T08:12:58.818Z,13.20
2023-05-09T08:15:26.742Z,12.57
2023-05-09T08:17:54.659Z,12.93
2023-05-09T08:20:22.557Z,12.63
2023-05-09T08:22:50.458Z,12.07
2023-05-09T08:25:18.435Z,11.68
2023-05-09T08:27:47.736Z,12.30
2023-05-09T08:30:16.527Z,12.65
2023-05-09T08:32:44.471Z,11.98
2023-05-09T08:35:13.284Z,11.85
2023-05-09T08:37:41.360Z,12.68
2023-05-09T08:40:10.343Z,12.60
2023-05-09T08:42:40.075Z,11.82
2023-05-09T08:45:11.201Z,11.70
2023-05-09T08:47:40.128Z,12.40
2023-05-09T08:50:09.619Z,13.13
2023-05-09T08:52:37.592Z,11.52
2023-05-09T08:55:06.600Z,12.65
2023-05-09T08:57:36.211Z,12.30
2023-05-09T09:00:06.239Z,12.38
2023-05-09T09:02:37.091Z,12.40
2023-05-09T09:05:09.923Z,12.32
2023-05-09T09:07:42.576Z,12.48
2023-05-09T09:10:12.265Z,11.75
2023-05-09T09:12:42.437Z,11.63
2023-05-09T09:15:15.998Z,11.80
2023-05-09T09:17:51.955Z,11.20
2023-05-09T09:20:22.910Z,11.40
2023-05-09T09:22:56.626Z,12.43
2023-05-09T09:25:24.552Z,11.48
2023-05-09T09:27:52.407Z,10.95
2023-05-09T09:30:23.403Z,11.40
2023-05-09T09:32:52.716Z,11.73
2023-05-09T09:38:08.043Z,9.02
2023-05-09T09:40:39.334Z,8.55
2023-05-09T09:43:08.159Z,8.63
2023-05-09T09:45:36.438Z,9.38
2023-05-09T09:48:08.394Z,9.05
2023-05-09T09:50:36.270Z,8.88
2023-05-09T09:53:04.298Z,8.90
2023-05-09T09:55:32.896Z,8.15
2023-05-09T09:58:00.771Z,8.25
2023-05-09T10:00:30.231Z,8.13
2023-05-09T10:02:59.299Z,7.65
2023-05-09T10:05:29.928Z,6.72
2023-05-09T10:07:59.808Z,7.90
2023-05-09T10:10:29.556Z,7.57
2023-05-09T10:12:58.638Z,7.35
2023-05-09T10:15:28.756Z,6.82
2023-05-09T10:18:00.777Z,6.47
2023-05-09T10:20:31.236Z,6.07
2023-05-09T10:23:03.251Z,6.07
2023-05-09T10:25:40.663Z,5.85
2023-05-09T10:28:13.178Z,6.00
2023-05-09T10:30:51.940Z,6.60
2023-05-09T10:33:25.151Z,6.30
2023-05-09T10:35:56.661Z,6.28
2023-05-09T10:38:25.902Z,5.40
2023-05-09T10:40:55.433Z,6.25
2023-05-09T10:43:25.363Z,5.55
2023-05-09T10:45:54.171Z,5.30
2023-05-09T10:48:24.157Z,5.20
2023-05-09T10:50:53.551Z,4.68
2023-05-09T10:53:24.369Z,5.20
2023-05-09T10:55:55.441Z,4.90
2023-05-09T10:58:27.337Z,5.13
2023-05-09T11:00:57.485Z,4.60
2023-05-09T11:03:26.566Z,4.78
2023-05-09T11:05:56.170Z,4.63
2023-05-09T11:08:27.047Z,4.63
2023-05-09T11:10:55.609Z,3.88
2023-05-09T11:13:25.095Z,4.07
2023-05-09T11:16:13.893Z,4.35
2023-05-09T11:18:53.056Z,4.43
2023-05-09T11:21:22.087Z,4.10
2023-05-09T11:23:54.498Z,4.53
2023-05-09T11:26:24.534Z,4.53
2023-05-09T11:28:56.761Z,4.25
2023-05-09T11:31:24.938Z,4.13
2023-05-09T11:33:58.305Z,4.60
2023-05-09T11:36:32.211Z,4.43
2023-05-09T11:39:09.231Z,4.20
2023-05-09T11:41:41.733Z,4.63
2023-05-09T11:44:15.435Z,4.80
2023-05-09T11:46:43.609Z,4.25
2023-05-09T11:49:12.420Z,4.43
2023-05-09T11:51:41.613Z,4.18
2023-05-09T11:54:13.670Z,4.20
2023-05-09T11:56:42.669Z,4.35
2023-05-09T11:59:13.198Z,4.57
2023-05-09T12:01:41.669Z,4.50
2023-05-09T12:04:09.731Z,4.57
2023-05-09T12:06:38.138Z,4.60
2023-05-09T12:09:06.723Z,4.55
2023-05-09T12:11:37.290Z,4.80
2023-05-09T12:14:05.451Z,4.55
2023-05-09T12:16:33.399Z,4.78
2023-05-09T12:19:01.658Z,4.90
2023-05-09T12:21:29.685Z,4.20
2023-05-09T12:23:57.820Z,4.68
2023-05-09T12:26:27.097Z,4.90
2023-05-09T12:28:56.793Z,4.45
2023-05-09T12:31:24.885Z,4.45
2023-05-09T12:33:52.853Z,3.90
2023-05-09T12:36:20.727Z,4.03
2023-05-09T12:38:55.802Z,3.60
2023-05-09T12:41:36.795Z,3.90
2023-05-09T12:44:11.162Z,4.53
2023-05-09T12:46:39.161Z,4.20
2023-05-09T12:49:07.250Z,4.32
2023-05-09T12:51:35.260Z,4.53
2023-05-09T12:54:05.965Z,3.92
2023-05-09T12:56:36.062Z,4.47
2023-05-09T12:59:04.130Z,5.10
2023-05-09T13:01:33.516Z,4.60
2023-05-09T13:04:03.830Z,4.45
2023-05-09T13:06:31.941Z,4.95
2023-05-09T13:09:01.639Z,8.48
2023-05-09T13:11:30.704Z,5.20
2023-05-09T13:13:59.025Z,4.78
2023-05-09T13:16:27.077Z,7.05
2023-05-09T13:18:56.562Z,4.80
2023-05-09T13:21:24.509Z,4.90
2023-05-09T13:23:52.417Z,4.55
2023-05-09T13:26:21.153Z,4.65
2023-05-09T13:28:49.275Z,4.90
2023-05-09T13:31:17.264Z,5.43
2023-05-09T13:33:45.475Z,6.53
2023-05-09T13:36:14.749Z,5.47
2023-05-09T13:38:43.260Z,5.18
2023-05-09T13:41:11.401Z,5.25
2023-05-09T13:43:42.509Z,5.03
2023-05-09T13:46:10.617Z,4.88
2023-05-09T13:48:39.672Z,4.82
2023-05-09T13:51:10.097Z,5.50
2023-05-09T13:53:40.103Z,5.88
2023-05-09T13:56:09.468Z,6.43
2023-05-09T13:58:38.272Z,6.35
2023-05-09T14:01:12.802Z,6.15
2023-05-09T14:03:41.767Z,5.28
2023-05-09T14:06:10.476Z,5.47
2023-05-09T14:08:39.813Z,6.45
2023-05-09T14:11:08.924Z,5.22
2023-05-09T14:13:37.178Z,5.63
2023-05-09T14:16:06.019Z,5.38
2023-05-09T14:18:33.868Z,7.00
2023-05-09T14:21:10.773Z,6.40
2023-05-09T14:23:40.021Z,6.18
2023-05-09T14:26:08.253Z,6.38
2023-05-09T14:28:36.482Z,6.50
2023-05-09T14:31:04.704Z,7.05
2023-05-09T14:33:34.885Z,6.75
2023-05-09T14:36:04.182Z,6.82
2023-05-09T14:38:33.353Z,6.43
2023-05-09T14:41:02.989Z,6.32
2023-05-09T14:43:31.097Z,6.03
2023-05-09T14:45:59.206Z,5.85
2023-05-09T14:48:27.196Z,5.63
2023-05-09T14:50:57.012Z,5.70
2023-05-09T14:53:25.073Z,6.25
2023-05-09T14:55:53.056Z,6.30
2023-05-09T14:58:24.592Z,7.07
2023-05-09T15:00:53.463Z,6.82
2023-05-09T15:03:21.746Z,5.80
2023-05-09T15:05:50.471Z,13.55
2023-05-09T15:08:18.964Z,5.65
2023-05-09T15:10:48.186Z,5.63
2023-05-09T15:13:16.306Z,5.50
2023-05-09T15:15:45.649Z,5.75
2023-05-09T15:18:15.882Z,5.43
2023-05-09T15:20:44.081Z,5.30
2023-05-09T15:23:13.216Z,6.50
2023-05-09T15:25:42.246Z,5.90
2023-05-09T15:28:10.204Z,5.25
2023-05-09T15:30:41.163Z,6.15
2023-05-09T15:33:10.616Z,6.50
2023-05-09T15:35:38.619Z,6.32
2023-05-09T15:38:07.877Z,7.30
2023-05-09T15:40:35.764Z,15.48
2023-05-09T15:43:08.010Z,6.90
2023-05-09T15:45:45.116Z,6.18
2023-05-09T15:48:15.430Z,5.75
2023-05-09T15:50:45.964Z,6.45
2023-05-09T15:53:15.587Z,5.82
2023-05-09T15:55:43.841Z,6.47
2023-05-09T15:58:11.725Z,6.60
2023-05-09T16:00:39.856Z,6.10
2023-05-09T16:03:08.084Z,7.00
2023-05-09T16:05:40.777Z,7.32
2023-05-09T16:08:08.645Z,7.90
2023-05-09T16:10:36.625Z,7.65
2023-05-09T16:13:04.976Z,8.30
2023-05-09T16:15:32.915Z,9.55
2023-05-09T16:18:00.844Z,8.18
2023-05-09T16:20:28.739Z,8.20
2023-05-09T16:22:58.004Z,9.30
2023-05-09T16:25:25.978Z,9.60
2023-05-09T16:27:54.287Z,11.30
2023-05-09T16:30:22.227Z,10.07
2023-05-09T16:32:50.175Z,12.00
2023-05-09T16:35:25.349Z,13.10
2023-05-09T16:38:02.065Z,13.90
2023-05-09T16:40:29.916Z,13.35
2023-05-09T16:42:57.837Z,14.95
2023-05-09T16:45:26.057Z,21.67
2023-05-09T16:47:55.736Z,18.92
2023-05-09T16:50:24.267Z,21.08
2023-05-09T16:52:52.084Z,24.15
2023-05-09T16:55:21.563Z,23.33
2023-05-09T16:57:49.429Z,10.65
2023-05-09T17:00:18.776Z,13.18
2023-05-09T17:02:47.326Z,12.85
2023-05-09T17:05:15.262Z,13.60
2023-05-09T17:07:43.167Z,15.15
2023-05-09T17:10:12.101Z,14.07
2023-05-09T17:12:42.020Z,12.43
2023-05-09T17:15:11.748Z,13.02
2023-05-09T17:17:39.719Z,12.88
2023-05-09T17:20:09.989Z,15.02
2023-05-09T17:22:37.852Z,11.02
2023-05-09T17:25:06.939Z,12.00
2023-05-09T17:27:34.855Z,12.77
2023-05-09T17:30:04.795Z,11.57
2023-05-09T17:32:33.025Z,10.68
2023-05-09T17:35:00.928Z,13.00
2023-05-09T17:37:28.892Z,11.48
2023-05-09T17:39:57.389Z,13.30
2023-05-09T17:42:25.450Z,13.07
2023-05-09T17:44:53.325Z,13.63
2023-05-09T17:47:22.708Z,14.05
2023-05-09T17:49:50.649Z,13.85
2023-05-09T17:52:18.612Z,12.77
2023-05-09T17:54:47.278Z,14.02
2023-05-09T17:57:15.171Z,13.85
2023-05-09T17:59:43.084Z,15.18
2023-05-09T18:02:11.274Z,14.10
2023-05-09T18:04:40.652Z,14.10
2023-05-09T18:07:09.744Z,15.02
2023-05-09T18:09:37.699Z,13.65
2023-05-09T18:12:06.034Z,13.85
2023-05-09T18:14:33.857Z,14.35
2023-05-09T18:17:01.738Z,13.15
2023-05-09T18:19:29.559Z,14.77
2023-05-09T18:21:58.901Z,14.82
2023-05-09T18:24:26.846Z,16.00
2023-05-09T18:26:54.742Z,15.88
2023-05-09T18:29:23.221Z,15.95
2023-05-09T18:31:51.148Z,16.00
2023-05-09T18:34:19.266Z,15.30
2023-05-09T18:36:47.295Z,16.73
2023-05-09T18:39:16.555Z,13.43
2023-05-09T18:41:44.718Z,14.43
2023-05-09T18:44:12.635Z,13.60
2023-05-09T18:46:41.343Z,14.35
2023-05-09T18:49:09.925Z,14.55
2023-05-09T18:51:37.866Z,14.32
2023-05-09T18:54:05.977Z,14.30
2023-05-09T18:56:39.218Z,14.30
2023-05-09T18:59:09.404Z,14.52
2023-05-09T19:01:38.084Z,14.95
2023-05-09T19:04:06.938Z,15.00
2023-05-09T19:06:34.941Z,15.80
2023-05-09T19:09:04.235Z,15.15
2023-05-09T19:11:32.153Z,15.77
2023-05-09T19:14:01.609Z,15.18
2023-05-09T19:16:29.680Z,15.57
2023-05-09T19:18:58.259Z,15.10
2023-05-09T19:21:26.403Z,15.40
2023-05-09T19:23:54.246Z,16.05
2023-05-09T19:26:22.875Z,15.00
2023-05-09T19:28:50.842Z,13.32
2023-05-09T19:31:20.669Z,13.48
2023-05-09T19:33:49.526Z,14.00
2023-05-09T19:36:17.902Z,13.15
2023-05-09T19:38:46.355Z,12.55
2023-05-09T19:41:14.929Z,12.05
2023-05-09T19:43:43.133Z,11.30
2023-05-09T19:46:11.072Z,10.52
2023-05-09T19:48:40.374Z,10.50
2023-05-09T19:51:12.219Z,9.57
2023-05-09T19:53:41.041Z,9.57
2023-05-09T19:56:09.614Z,9.15
2023-05-09T19:58:37.461Z,8.07
2023-05-09T20:01:07.129Z,8.23
2023-05-09T20:03:37.090Z,5.20
2023-05-09T20:06:07.663Z,4.45
2023-05-09T20:08:35.662Z,4.28
2023-05-09T20:11:03.528Z,5.15
2023-05-09T20:13:31.370Z,5.43
2023-05-09T20:16:00.172Z,5.53
2023-05-09T20:18:33.076Z,6.03
2023-05-09T20:21:01.526Z,5.78
2023-05-09T20:23:31.123Z,6.38
2023-05-09T20:25:59.226Z,6.15
2023-05-09T20:28:27.293Z,5.78
2023-05-09T20:30:55.198Z,5.88
2023-05-09T20:33:23.153Z,5.45
2023-05-09T20:35:51.075Z,4.78
2023-05-09T20:38:19.614Z,4.07
2023-05-09T20:40:48.857Z,3.55
2023-05-09T20:43:16.720Z,4.10
2023-05-09T20:45:44.726Z,3.72
2023-05-09T20:48:12.743Z,3.55
2023-05-09T20:50:40.724Z,4.18
2023-05-09T20:53:08.648Z,4.50
2023-05-09T20:55:36.582Z,3.67
2023-05-09T20:58:05.846Z,3.72
2023-05-09T21:00:34.270Z,3.88
2023-05-09T21:03:02.258Z,4.20
2023-05-09T21:05:30.226Z,4.03
2023-05-09T21:07:58.090Z,3.85
2023-05-09T21:10:25.996Z,4.43
2023-05-09T21:12:53.953Z,4.68
2023-05-09T21:15:23.249Z,4.90
2023-05-09T21:17:51.194Z,6.50
2023-05-09T21:20:19.373Z,6.70
2023-05-09T21:22:47.260Z,6.55
2023-05-09T21:25:16.287Z,6.25
2023-05-09T21:27:44.216Z,6.65
2023-05-09T21:30:12.674Z,6.72
2023-05-09T21:32:42.089Z,5.72
2023-05-09T21:35:12.871Z,6.53
2023-05-09T21:37:40.892Z,6.25
2023-05-09T21:40:10.139Z,6.55
2023-05-09T21:42:40.095Z,6.22
2023-05-09T21:45:09.018Z,6.75
2023-05-09T21:47:37.037Z,6.70
2023-05-09T21:50:07.228Z,6.57
2023-05-09T21:52:35.147Z,7.50
2023-05-09T21:55:03.051Z,7.57
2023-05-09T21:57:30.941Z,7.65
2023-05-09T22:00:01.354Z,7.70
2023-05-09T22:02:29.672Z,8.60
2023-05-09T22:04:57.615Z,8.90
2023-05-09T22:07:26.886Z,8.75
2023-05-09T22:09:54.795Z,8.38
2023-05-09T22:12:23.050Z,9.65
2023-05-09T22:14:56.469Z,9.75
2023-05-09T22:17:25.212Z,9.57
2023-05-09T22:19:53.171Z,10.20
2023-05-09T22:22:21.367Z,8.98
2023-05-09T22:24:50.660Z,8.80
2023-05-09T22:27:18.540Z,8.82
2023-05-09T22:29:46.741Z,7.63
2023-05-09T22:32:15.187Z,7.18
2023-05-09T22:34:43.365Z,7.60
2023-05-09T22:37:12.291Z,7.35
2023-05-09T22:39:40.240Z,7.20
2023-05-09T22:42:11.286Z,7.05
2023-05-09T22:44:39.508Z,6.85
2023-05-09T22:47:09.270Z,7.82
2023-05-09T22:49:37.459Z,8.77
2023-05-09T22:52:05.724Z,7.20
2023-05-09T22:54:34.515Z,7.72
2023-05-09T22:57:02.477Z,7.38
2023-05-09T22:59:32.098Z,7.32
2023-05-09T23:02:00.237Z,5.43
2023-05-09T23:04:28.279Z,6.43
2023-05-09T23:06:56.202Z,6.20
2023-05-09T23:09:24.163Z,5.85
2023-05-09T23:11:52.203Z,5.00
2023-05-09T23:14:20.305Z,6.18
2023-05-09T23:16:50.719Z,5.75
2023-05-09T23:19:19.777Z,5.80
2023-05-09T23:21:47.619Z,5.13
2023-05-09T23:24:18.749Z,4.75
2023-05-09T23:26:46.608Z,4.68
2023-05-09T23:29:15.026Z,3.70
2023-05-09T23:31:43.116Z,3.20
2023-05-09T23:34:12.430Z,3.15
2023-05-09T23:36:40.419Z,2.80
2023-05-09T23:39:08.542Z,2.95
2023-05-09T23:41:36.692Z,2.63
2023-05-09T23:44:04.851Z,3.08
2023-05-09T23:46:32.848Z,2.83
2023-05-09T23:49:00.855Z,3.15
2023-05-09T23:51:30.175Z,3.45
2023-05-09T23:53:58.043Z,2.85
2023-05-09T23:56:26.274Z,2.58
2023-05-09T23:58:54.357Z,2.35
